sensor_id;sensor_type;location;lat;lon;timestamp;temperature;humidity
32895;DHT22;19251;49.484;8.260;2023-11-18T00:02:58;9.50;25.90
32895;DHT22;19251;49.484;8.260;2023-11-18T00:08:01;9.40;25.80
32895;DHT22;19251;49.484;8.260;2023-11-18T00:13:03;9.30;25.80
32895;DHT22;19251;49.484;8.260;2023-11-18T00:18:06;9.20;25.80
32895;DHT22;19251;49.484;8.260;2023-11-18T00:23:09;9.30;25.90
32895;DHT22;19251;49.484;8.260;2023-11-18T00:28:11;9.20;25.80
32895;DHT22;19251;49.484;8.260;2023-11-18T00:33:13;9.40;26.40
32895;DHT22;19251;49.484;8.260;2023-11-18T00:38:16;8.90;25.90
32895;DHT22;19251;49.484;8.260;2023-11-18T00:48:20;9.20;26.40
32895;DHT22;19251;49.484;8.260;2023-11-18T00:53:23;9.00;26.30
32895;DHT22;19251;49.484;8.260;2023-11-18T00:58:25;8.90;25.90
32895;DHT22;19251;49.484;8.260;2023-11-18T01:03:27;9.70;27.50
32895;DHT22;19251;49.484;8.260;2023-11-18T01:08:30;9.00;26.40
32895;DHT22;19251;49.484;8.260;2023-11-18T01:13:32;8.90;25.80
32895;DHT22;19251;49.484;8.260;2023-11-18T01:18:34;8.70;25.70
32895;DHT22;19251;49.484;8.260;2023-11-18T01:23:37;8.70;25.70
32895;DHT22;19251;49.484;8.260;2023-11-18T01:28:40;9.00;26.50
32895;DHT22;19251;49.484;8.260;2023-11-18T01:33:47;8.20;25.80
32895;DHT22;19251;49.484;8.260;2023-11-18T01:38:52;8.50;25.70
32895;DHT22;19251;49.484;8.260;2023-11-18T01:43:56;8.60;25.80
32895;DHT22;19251;49.484;8.260;2023-11-18T01:48:59;8.50;25.70
32895;DHT22;19251;49.484;8.260;2023-11-18T01:54:02;8.40;25.60
32895;DHT22;19251;49.484;8.260;2023-11-18T01:59:06;8.30;25.50
32895;DHT22;19251;49.484;8.260;2023-11-18T02:04:11;8.20;25.50
32895;DHT22;19251;49.484;8.260;2023-11-18T02:09:19;8.20;25.60
32895;DHT22;19251;49.484;8.260;2023-11-18T02:14:30;8.10;25.40
32895;DHT22;19251;49.484;8.260;2023-11-18T02:19:34;8.20;25.60
32895;DHT22;19251;49.484;8.260;2023-11-18T02:24:37;8.00;25.40
32895;DHT22;19251;49.484;8.260;2023-11-18T02:29:41;7.90;25.40
32895;DHT22;19251;49.484;8.260;2023-11-18T02:34:55;7.90;25.90
32895;DHT22;19251;49.484;8.260;2023-11-18T02:40:08;7.90;25.90
32895;DHT22;19251;49.484;8.260;2023-11-18T02:50:19;7.80;26.00
32895;DHT22;19251;49.484;8.260;2023-11-18T03:00:26;7.90;26.00
32895;DHT22;19251;49.484;8.260;2023-11-18T03:05:30;8.20;26.60
32895;DHT22;19251;49.484;8.260;2023-11-18T03:10:33;8.20;26.70
32895;DHT22;19251;49.484;8.260;2023-11-18T03:15:37;8.10;26.50
32895;DHT22;19251;49.484;8.260;2023-11-18T03:20:39;8.20;26.90
32895;DHT22;19251;49.484;8.260;2023-11-18T03:25:42;8.20;26.80
32895;DHT22;19251;49.484;8.260;2023-11-18T03:30:44;8.30;27.00
32895;DHT22;19251;49.484;8.260;2023-11-18T03:35:46;7.80;26.10
32895;DHT22;19251;49.484;8.260;2023-11-18T03:40:48;8.50;26.70
32895;DHT22;19251;49.484;8.260;2023-11-18T03:45:50;8.50;27.00
32895;DHT22;19251;49.484;8.260;2023-11-18T03:50:59;8.50;26.50
32895;DHT22;19251;49.484;8.260;2023-11-18T04:01:04;8.50;26.20
32895;DHT22;19251;49.484;8.260;2023-11-18T04:11:11;8.40;26.10
32895;DHT22;19251;49.484;8.260;2023-11-18T04:16:13;8.40;26.30
32895;DHT22;19251;49.484;8.260;2023-11-18T04:21:17;8.30;26.10
32895;DHT22;19251;49.484;8.260;2023-11-18T04:26:19;8.30;26.10
32895;DHT22;19251;49.484;8.260;2023-11-18T04:31:22;8.20;26.10
32895;DHT22;19251;49.484;8.260;2023-11-18T04:36:24;8.30;26.60
32895;DHT22;19251;49.484;8.260;2023-11-18T04:41:29;8.30;26.60
32895;DHT22;19251;49.484;8.260;2023-11-18T04:46:33;8.00;26.30
32895;DHT22;19251;49.484;8.260;2023-11-18T04:51:36;8.00;26.00
32895;DHT22;19251;49.484;8.260;2023-11-18T04:56:38;7.90;26.30
32895;DHT22;19251;49.484;8.260;2023-11-18T05:01:40;8.00;26.40
32895;DHT22;19251;49.484;8.260;2023-11-18T05:06:42;7.80;26.40
32895;DHT22;19251;49.484;8.260;2023-11-18T05:11:45;7.80;26.00
32895;DHT22;19251;49.484;8.260;2023-11-18T05:16:47;8.00;26.70
32895;DHT22;19251;49.484;8.260;2023-11-18T05:21:50;7.80;26.60
32895;DHT22;19251;49.484;8.260;2023-11-18T05:31:54;7.90;26.80
32895;DHT22;19251;49.484;8.260;2023-11-18T05:36:57;7.90;26.30
32895;DHT22;19251;49.484;8.260;2023-11-18T05:42:01;8.00;26.50
32895;DHT22;19251;49.484;8.260;2023-11-18T05:47:04;8.20;27.00
32895;DHT22;19251;49.484;8.260;2023-11-18T05:52:06;8.10;26.60
32895;DHT22;19251;49.484;8.260;2023-11-18T05:57:09;8.10;26.50
32895;DHT22;19251;49.484;8.260;2023-11-18T06:07:21;8.10;26.90
32895;DHT22;19251;49.484;8.260;2023-11-18T06:12:25;8.10;26.50
32895;DHT22;19251;49.484;8.260;2023-11-18T06:17:28;8.20;27.00
32895;DHT22;19251;49.484;8.260;2023-11-18T06:22:31;8.20;26.90
32895;DHT22;19251;49.484;8.260;2023-11-18T06:27:33;8.30;26.90
32895;DHT22;19251;49.484;8.260;2023-11-18T06:32:35;8.30;27.30
32895;DHT22;19251;49.484;8.260;2023-11-18T06:37:38;8.40;27.20
32895;DHT22;19251;49.484;8.260;2023-11-18T06:42:40;8.70;27.30
32895;DHT22;19251;49.484;8.260;2023-11-18T06:47:44;8.60;27.40
32895;DHT22;19251;49.484;8.260;2023-11-18T06:52:47;8.80;27.40
32895;DHT22;19251;49.484;8.260;2023-11-18T06:57:50;8.80;27.40
32895;DHT22;19251;49.484;8.260;2023-11-18T07:07:58;9.00;27.40
32895;DHT22;19251;49.484;8.260;2023-11-18T07:13:00;9.00;27.30
32895;DHT22;19251;49.484;8.260;2023-11-18T07:18:02;9.10;27.40
32895;DHT22;19251;49.484;8.260;2023-11-18T07:23:05;9.20;27.50
32895;DHT22;19251;49.484;8.260;2023-11-18T07:33:11;9.30;27.40
32895;DHT22;19251;49.484;8.260;2023-11-18T07:43:16;9.40;27.30
32895;DHT22;19251;49.484;8.260;2023-11-18T07:48:19;9.50;27.30
32895;DHT22;19251;49.484;8.260;2023-11-18T07:53:22;9.50;27.30
32895;DHT22;19251;49.484;8.260;2023-11-18T07:58:24;9.60;27.40
32895;DHT22;19251;49.484;8.260;2023-11-18T08:03:29;9.60;27.20
32895;DHT22;19251;49.484;8.260;2023-11-18T08:08:36;9.70;27.30
32895;DHT22;19251;49.484;8.260;2023-11-18T08:13:41;9.70;27.20
32895;DHT22;19251;49.484;8.260;2023-11-18T08:28:52;9.90;27.40
32895;DHT22;19251;49.484;8.260;2023-11-18T08:33:54;9.90;27.50
32895;DHT22;19251;49.484;8.260;2023-11-18T08:38:56;10.00;26.60
32895;DHT22;19251;49.484;8.260;2023-11-18T08:43:59;10.10;26.70
32895;DHT22;19251;49.484;8.260;2023-11-18T08:49:21;10.20;26.70
32895;DHT22;19251;49.484;8.260;2023-11-18T08:54:24;10.30;26.60
32895;DHT22;19251;49.484;8.260;2023-11-18T08:59:38;10.60;26.70
32895;DHT22;19251;49.484;8.260;2023-11-18T09:09:45;10.60;26.50
32895;DHT22;19251;49.484;8.260;2023-11-18T09:14:47;10.70;26.60
32895;DHT22;19251;49.484;8.260;2023-11-18T09:19:54;10.80;26.50
32895;DHT22;19251;49.484;8.260;2023-11-18T09:24:56;10.80;26.40
32895;DHT22;19251;49.484;8.260;2023-11-18T09:29:58;10.90;26.50
32895;DHT22;19251;49.484;8.260;2023-11-18T09:40:14;11.20;26.50
32895;DHT22;19251;49.484;8.260;2023-11-18T09:45:16;11.30;26.40
32895;DHT22;19251;49.484;8.260;2023-11-18T09:55:56;11.50;26.20
32895;DHT22;19251;49.484;8.260;2023-11-18T10:01:03;11.50;26.10
32895;DHT22;19251;49.484;8.260;2023-11-18T10:06:06;11.50;25.70
32895;DHT22;19251;49.484;8.260;2023-11-18T10:11:11;11.60;25.70
32895;DHT22;19251;49.484;8.260;2023-11-18T10:16:15;11.70;25.60
32895;DHT22;19251;49.484;8.260;2023-11-18T10:21:34;11.60;25.10
32895;DHT22;19251;49.484;8.260;2023-11-18T10:26:43;11.90;25.50
32895;DHT22;19251;49.484;8.260;2023-11-18T10:31:47;11.90;25.20
32895;DHT22;19251;49.484;8.260;2023-11-18T10:36:59;12.00;24.60
32895;DHT22;19251;49.484;8.260;2023-11-18T10:42:04;12.00;24.50
32895;DHT22;19251;49.484;8.260;2023-11-18T10:47:07;12.00;24.40
32895;DHT22;19251;49.484;8.260;2023-11-18T10:52:13;12.00;24.30
32895;DHT22;19251;49.484;8.260;2023-11-18T10:57:19;12.00;24.20
32895;DHT22;19251;49.484;8.260;2023-11-18T11:07:26;12.10;24.40
32895;DHT22;19251;49.484;8.260;2023-11-18T11:12:38;12.10;24.10
32895;DHT22;19251;49.484;8.260;2023-11-18T11:17:46;12.20;24.30
32895;DHT22;19251;49.484;8.260;2023-11-18T11:23:06;12.40;24.20
32895;DHT22;19251;49.484;8.260;2023-11-18T11:28:22;12.10;23.90
32895;DHT22;19251;49.484;8.260;2023-11-18T11:33:43;12.20;23.80
32895;DHT22;19251;49.484;8.260;2023-11-18T11:38:49;12.20;23.90
32895;DHT22;19251;49.484;8.260;2023-11-18T11:43:53;12.20;23.90
32895;DHT22;19251;49.484;8.260;2023-11-18T11:49:04;12.30;23.90
32895;DHT22;19251;49.484;8.260;2023-11-18T11:54:38;12.30;23.70
32895;DHT22;19251;49.484;8.260;2023-11-18T12:04:47;12.20;23.60
32895;DHT22;19251;49.484;8.260;2023-11-18T12:10:01;12.00;23.50
32895;DHT22;19251;49.484;8.260;2023-11-18T12:15:08;12.30;23.60
32895;DHT22;19251;49.484;8.260;2023-11-18T12:20:45;12.30;23.60
32895;DHT22;19251;49.484;8.260;2023-11-18T12:31:39;12.10;23.10
32895;DHT22;19251;49.484;8.260;2023-11-18T12:37:08;12.20;22.80
32895;DHT22;19251;49.484;8.260;2023-11-18T12:42:17;12.10;22.90
32895;DHT22;19251;49.484;8.260;2023-11-18T12:47:29;12.10;23.10
32895;DHT22;19251;49.484;8.260;2023-11-18T12:57:36;12.10;23.20
32895;DHT22;19251;49.484;8.260;2023-11-18T13:02:40;12.10;23.20
32895;DHT22;19251;49.484;8.260;2023-11-18T13:07:43;12.10;23.20
32895;DHT22;19251;49.484;8.260;2023-11-18T13:12:45;12.20;23.10
32895;DHT22;19251;49.484;8.260;2023-11-18T13:17:59;12.20;23.20
32895;DHT22;19251;49.484;8.260;2023-11-18T13:23:02;12.30;23.10
32895;DHT22;19251;49.484;8.260;2023-11-18T13:28:11;12.20;23.00
32895;DHT22;19251;49.484;8.260;2023-11-18T13:33:13;12.30;23.10
32895;DHT22;19251;49.484;8.260;2023-11-18T13:38:15;12.10;23.00
32895;DHT22;19251;49.484;8.260;2023-11-18T13:48:24;12.20;23.00
32895;DHT22;19251;49.484;8.260;2023-11-18T13:53:26;12.10;22.90
32895;DHT22;19251;49.484;8.260;2023-11-18T13:58:28;12.20;22.80
32895;DHT22;19251;49.484;8.260;2023-11-18T14:08:34;12.10;22.60
32895;DHT22;19251;49.484;8.260;2023-11-18T14:13:37;12.00;22.60
32895;DHT22;19251;49.484;8.260;2023-11-18T14:18:39;12.00;22.60
32895;DHT22;19251;49.484;8.260;2023-11-18T14:23:43;12.00;22.70
32895;DHT22;19251;49.484;8.260;2023-11-18T14:28:46;12.00;22.70
32895;DHT22;19251;49.484;8.260;2023-11-18T14:38:51;11.90;22.70
32895;DHT22;19251;49.484;8.260;2023-11-18T14:43:53;11.90;22.70
32895;DHT22;19251;49.484;8.260;2023-11-18T14:48:56;11.90;22.70
32895;DHT22;19251;49.484;8.260;2023-11-18T14:53:58;11.90;22.70
32895;DHT22;19251;49.484;8.260;2023-11-18T14:59:00;11.80;22.80
32895;DHT22;19251;49.484;8.260;2023-11-18T15:04:03;11.80;22.90
32895;DHT22;19251;49.484;8.260;2023-11-18T15:09:08;11.80;22.80
32895;DHT22;19251;49.484;8.260;2023-11-18T15:14:12;11.70;22.80
32895;DHT22;19251;49.484;8.260;2023-11-18T15:19:16;11.70;23.00
32895;DHT22;19251;49.484;8.260;2023-11-18T15:24:18;11.70;23.10
32895;DHT22;19251;49.484;8.260;2023-11-18T15:29:20;11.70;23.10
32895;DHT22;19251;49.484;8.260;2023-11-18T15:34:22;11.70;23.20
32895;DHT22;19251;49.484;8.260;2023-11-18T15:44:27;11.60;23.10
32895;DHT22;19251;49.484;8.260;2023-11-18T15:49:30;11.70;23.30
32895;DHT22;19251;49.484;8.260;2023-11-18T15:54:33;11.60;23.50
32895;DHT22;19251;49.484;8.260;2023-11-18T15:59:35;11.70;23.60
32895;DHT22;19251;49.484;8.260;2023-11-18T16:04:37;11.50;23.40
32895;DHT22;19251;49.484;8.260;2023-11-18T16:09:39;11.80;23.80
32895;DHT22;19251;49.484;8.260;2023-11-18T16:24:50;11.60;24.00
32895;DHT22;19251;49.484;8.260;2023-11-18T16:29:53;11.60;24.00
32895;DHT22;19251;49.484;8.260;2023-11-18T16:34:55;11.60;24.30
32895;DHT22;19251;49.484;8.260;2023-11-18T16:39:57;11.60;24.50
32895;DHT22;19251;49.484;8.260;2023-11-18T16:45:00;11.50;24.40
32895;DHT22;19251;49.484;8.260;2023-11-18T16:50:04;11.50;24.80
32895;DHT22;19251;49.484;8.260;2023-11-18T16:55:08;11.50;25.00
32895;DHT22;19251;49.484;8.260;2023-11-18T17:00:13;11.50;25.00
32895;DHT22;19251;49.484;8.260;2023-11-18T17:05:19;11.50;25.00
32895;DHT22;19251;49.484;8.260;2023-11-18T17:10:22;11.40;25.30
32895;DHT22;19251;49.484;8.260;2023-11-18T17:15:25;11.40;25.30
32895;DHT22;19251;49.484;8.260;2023-11-18T17:20:27;11.50;25.40
32895;DHT22;19251;49.484;8.260;2023-11-18T17:25:29;11.50;25.50
32895;DHT22;19251;49.484;8.260;2023-11-18T17:30:32;11.60;25.40
32895;DHT22;19251;49.484;8.260;2023-11-18T17:35:38;11.40;25.40
32895;DHT22;19251;49.484;8.260;2023-11-18T17:40:42;11.40;25.70
32895;DHT22;19251;49.484;8.260;2023-11-18T17:45:45;11.40;25.90
32895;DHT22;19251;49.484;8.260;2023-11-18T17:55:54;11.40;25.90
32895;DHT22;19251;49.484;8.260;2023-11-18T18:06:00;11.40;26.30
32895;DHT22;19251;49.484;8.260;2023-11-18T18:11:02;11.40;26.50
32895;DHT22;19251;49.484;8.260;2023-11-18T18:16:05;11.20;26.00
32895;DHT22;19251;49.484;8.260;2023-11-18T18:21:07;11.40;26.50
32895;DHT22;19251;49.484;8.260;2023-11-18T18:26:09;11.40;26.50
32895;DHT22;19251;49.484;8.260;2023-11-18T18:31:12;11.30;26.40
32895;DHT22;19251;49.484;8.260;2023-11-18T18:36:14;11.30;26.40
32895;DHT22;19251;49.484;8.260;2023-11-18T18:46:19;11.30;26.40
32895;DHT22;19251;49.484;8.260;2023-11-18T18:51:21;11.30;26.40
32895;DHT22;19251;49.484;8.260;2023-11-18T18:56:26;11.30;26.40
32895;DHT22;19251;49.484;8.260;2023-11-18T19:01:29;11.10;26.30
32895;DHT22;19251;49.484;8.260;2023-11-18T19:06:33;11.10;26.30
32895;DHT22;19251;49.484;8.260;2023-11-18T19:11:36;11.60;26.70
32895;DHT22;19251;49.484;8.260;2023-11-18T19:16:38;11.30;26.40
32895;DHT22;19251;49.484;8.260;2023-11-18T19:21:45;11.20;26.30
32895;DHT22;19251;49.484;8.260;2023-11-18T19:26:48;11.20;26.30
32895;DHT22;19251;49.484;8.260;2023-11-18T19:31:50;11.40;27.00
32895;DHT22;19251;49.484;8.260;2023-11-18T19:36:52;11.30;26.40
32895;DHT22;19251;49.484;8.260;2023-11-18T19:41:54;11.30;27.00
32895;DHT22;19251;49.484;8.260;2023-11-18T19:46:56;11.60;26.90
32895;DHT22;19251;49.484;8.260;2023-11-18T19:51:59;11.50;26.60
32895;DHT22;19251;49.484;8.260;2023-11-18T19:57:01;11.40;26.60
32895;DHT22;19251;49.484;8.260;2023-11-18T20:02:03;11.70;26.90
32895;DHT22;19251;49.484;8.260;2023-11-18T20:07:06;11.40;26.50
32895;DHT22;19251;49.484;8.260;2023-11-18T20:12:08;11.40;26.50
32895;DHT22;19251;49.484;8.260;2023-11-18T20:17:10;11.40;26.50
32895;DHT22;19251;49.484;8.260;2023-11-18T20:22:12;11.50;26.60
32895;DHT22;19251;49.484;8.260;2023-11-18T20:27:14;11.50;26.60
32895;DHT22;19251;49.484;8.260;2023-11-18T20:37:19;11.50;26.80
32895;DHT22;19251;49.484;8.260;2023-11-18T20:42:22;11.60;26.70
32895;DHT22;19251;49.484;8.260;2023-11-18T20:47:25;11.50;27.10
32895;DHT22;19251;49.484;8.260;2023-11-18T20:52:28;11.60;27.00
32895;DHT22;19251;49.484;8.260;2023-11-18T21:02:35;11.60;27.30
32895;DHT22;19251;49.484;8.260;2023-11-18T21:07:38;11.60;27.70
32895;DHT22;19251;49.484;8.260;2023-11-18T21:12:41;11.60;27.50
32895;DHT22;19251;49.484;8.260;2023-11-18T21:24:00;11.50;27.90
32895;DHT22;19251;49.484;8.260;2023-11-18T21:29:05;11.60;27.90
32895;DHT22;19251;49.484;8.260;2023-11-18T21:34:07;11.60;27.90
32895;DHT22;19251;49.484;8.260;2023-11-18T21:39:09;11.70;27.80
32895;DHT22;19251;49.484;8.260;2023-11-18T21:44:16;11.60;27.70
32895;DHT22;19251;49.484;8.260;2023-11-18T21:49:18;11.80;27.80
32895;DHT22;19251;49.484;8.260;2023-11-18T21:54:21;11.60;27.70
32895;DHT22;19251;49.484;8.260;2023-11-18T21:59:23;11.70;27.90
32895;DHT22;19251;49.484;8.260;2023-11-18T22:04:27;11.90;28.00
32895;DHT22;19251;49.484;8.260;2023-11-18T22:09:29;11.80;27.90
32895;DHT22;19251;49.484;8.260;2023-11-18T22:14:32;11.80;27.90
32895;DHT22;19251;49.484;8.260;2023-11-18T22:19:35;11.80;27.90
32895;DHT22;19251;49.484;8.260;2023-11-18T22:24:38;11.80;28.00
32895;DHT22;19251;49.484;8.260;2023-11-18T22:29:43;11.90;28.00
32895;DHT22;19251;49.484;8.260;2023-11-18T22:34:46;11.90;28.00
32895;DHT22;19251;49.484;8.260;2023-11-18T22:44:51;12.00;28.50
32895;DHT22;19251;49.484;8.260;2023-11-18T22:54:56;12.00;28.40
32895;DHT22;19251;49.484;8.260;2023-11-18T22:59:58;12.00;28.80
32895;DHT22;19251;49.484;8.260;2023-11-18T23:10:08;12.30;29.10
32895;DHT22;19251;49.484;8.260;2023-11-18T23:20:15;12.20;28.90
32895;DHT22;19251;49.484;8.260;2023-11-18T23:25:20;12.20;28.90
32895;DHT22;19251;49.484;8.260;2023-11-18T23:30:24;12.40;29.30
32895;DHT22;19251;49.484;8.260;2023-11-18T23:35:27;12.40;29.30
32895;DHT22;19251;49.484;8.260;2023-11-18T23:40:30;12.40;29.30
32895;DHT22;19251;49.484;8.260;2023-11-18T23:50:37;12.50;29.70
32895;DHT22;19251;49.484;8.260;2023-11-18T23:55:39;12.60;29.60
